sensor_id;sensor_type;location;lat;lon;timestamp;pressure;altitude;pressure_sealevel;temperature;humidity
32873;BME280;19224;52.462;16.898;2023-02-12T00:00:26;101788.77;;;6.42;100.00
32873;BME280;19224;52.462;16.898;2023-02-12T00:02:58;101797.27;;;6.41;100.00
32873;BME280;19224;52.462;16.898;2023-02-12T00:05:28;101792.36;;;6.36;100.00
32873;BME280;19224;52.462;16.898;2023-02-12T00:07:59;101789.20;;;6.43;100.00
32873;BME280;19224;52.462;16.898;2023-02-12T00:10:29;101789.66;;;6.47;100.00
32873;BME280;19224;52.462;16.898;2023-02-12T00:13:00;101795.45;;;6.42;100.00
32873;BME280;19224;52.462;16.898;2023-02-12T00:15:30;101799.91;;;6.43;100.00
32873;BME280;19224;52.462;16.898;2023-02-12T00:18:02;101794.12;;;6.43;100.00
32873;BME280;19224;52.462;16.898;2023-02-12T00:20:33;101807.09;;;6.39;100.00
32873;BME280;19224;52.462;16.898;2023-02-12T00:23:04;101822.23;;;6.37;100.00
32873;BME280;19224;52.462;16.898;2023-02-12T00:25:39;101816.47;;;6.35;100.00
32873;BME280;19224;52.462;16.898;2023-02-12T00:28:06;101828.47;;;6.41;100.00
32873;BME280;19224;52.462;16.898;2023-02-12T00:30:37;101818.67;;;6.41;100.00
32873;BME280;19224;52.462;16.898;2023-02-12T00:33:07;101827.58;;;6.43;100.00
32873;BME280;19224;52.462;16.898;2023-02-12T00:35:37;101828.02;;;6.46;100.00
32873;BME280;19224;52.462;16.898;2023-02-12T00:38:08;101837.37;;;6.43;100.00
32873;BME280;19224;52.462;16.898;2023-02-12T00:40:38;101837.83;;;6.41;100.00
32873;BME280;19224;52.462;16.898;2023-02-12T00:43:08;101830.71;;;6.41;100.00
32873;BME280;19224;52.462;16.898;2023-02-12T00:45:39;101836.97;;;6.36;100.00
32873;BME280;19224;52.462;16.898;2023-02-12T00:48:09;101840.97;;;6.33;100.00
32873;BME280;19224;52.462;16.898;2023-02-12T00:50:40;101845.88;;;6.32;100.00
32873;BME280;19224;52.462;16.898;2023-02-12T00:53:10;101851.23;;;6.32;100.00
32873;BME280;19224;52.462;16.898;2023-02-12T00:55:41;101850.34;;;6.33;100.00
32873;BME280;19224;52.462;16.898;2023-02-12T00:58:11;101860.17;;;6.34;100.00
32873;BME280;19224;52.462;16.898;2023-02-12T01:00:42;101865.97;;;6.35;100.00
32873;BME280;19224;52.462;16.898;2023-02-12T01:03:14;101868.20;;;6.34;100.00
32873;BME280;19224;52.462;16.898;2023-02-12T01:05:46;101870.43;;;6.31;100.00
32873;BME280;19224;52.462;16.898;2023-02-12T01:08:18;101869.06;;;6.33;100.00
32873;BME280;19224;52.462;16.898;2023-02-12T01:10:59;101874.42;;;6.39;100.00
32873;BME280;19224;52.462;16.898;2023-02-12T01:13:33;101882.88;;;6.38;100.00
32873;BME280;19224;52.462;16.898;2023-02-12T01:16:19;101890.93;;;6.37;100.00
32873;BME280;19224;52.462;16.898;2023-02-12T01:18:52;101891.83;;;6.36;100.00
32873;BME280;19224;52.462;16.898;2023-02-12T01:21:27;101896.28;;;6.31;100.00
32873;BME280;19224;52.462;16.898;2023-02-12T01:24:02;101887.80;;;6.33;100.00
32873;BME280;19224;52.462;16.898;2023-02-12T01:26:33;101891.84;;;6.27;100.00
32873;BME280;19224;52.462;16.898;2023-02-12T01:29:09;101901.17;;;6.33;100.00
32873;BME280;19224;52.462;16.898;2023-02-12T01:31:40;101915.48;;;6.23;100.00
32873;BME280;19224;52.462;16.898;2023-02-12T01:34:11;101926.18;;;6.21;100.00
32873;BME280;19224;52.462;16.898;2023-02-12T01:36:42;101923.95;;;6.24;100.00
32873;BME280;19224;52.462;16.898;2023-02-12T01:39:13;101923.50;;;6.26;100.00
32873;BME280;19224;52.462;16.898;2023-02-12T01:41:45;101924.39;;;6.29;100.00
32873;BME280;19224;52.462;16.898;2023-02-12T01:44:22;101923.48;;;6.32;100.00
32873;BME280;19224;52.462;16.898;2023-02-12T01:47:00;101924.39;;;6.28;100.00
32873;BME280;19224;52.462;16.898;2023-02-12T01:49:38;101930.16;;;6.32;100.00
32873;BME280;19224;52.462;16.898;2023-02-12T01:52:17;101930.19;;;6.30;100.00
32873;BME280;19224;52.462;16.898;2023-02-12T01:54:53;101930.19;;;6.26;100.00
32873;BME280;19224;52.462;16.898;2023-02-12T01:57:26;101926.61;;;6.25;100.00
32873;BME280;19224;52.462;16.898;2023-02-12T01:59:59;101930.20;;;6.23;100.00
32873;BME280;19224;52.462;16.898;2023-02-12T02:02:31;101936.86;;;6.27;100.00
32873;BME280;19224;52.462;16.898;2023-02-12T02:05:05;101939.56;;;6.18;100.00
32873;BME280;19224;52.462;16.898;2023-02-12T02:07:36;101928.41;;;6.19;100.00
32873;BME280;19224;52.462;16.898;2023-02-12T02:10:08;101934.64;;;6.22;100.00
32873;BME280;19224;52.462;16.898;2023-02-12T02:12:39;101940.42;;;6.26;100.00
32873;BME280;19224;52.462;16.898;2023-02-12T02:15:29;101935.53;;;6.24;100.00
32873;BME280;19224;52.462;16.898;2023-02-12T02:18:25;101931.96;;;6.21;100.00
32873;BME280;19224;52.462;16.898;2023-02-12T02:24:25;101939.55;;;6.21;100.00
32873;BME280;19224;52.462;16.898;2023-02-12T02:33:25;101944.45;;;6.28;100.00
32873;BME280;19224;52.462;16.898;2023-02-12T02:38:58;101956.06;;;6.24;100.00
32873;BME280;19224;52.462;16.898;2023-02-12T02:41:33;101954.28;;;6.23;100.00
32873;BME280;19224;52.462;16.898;2023-02-12T02:44:12;101955.59;;;6.24;100.00
32873;BME280;19224;52.462;16.898;2023-02-12T02:46:49;101953.80;;;6.22;100.00
32873;BME280;19224;52.462;16.898;2023-02-12T02:49:28;101961.86;;;6.25;100.00
32873;BME280;19224;52.462;16.898;2023-02-12T02:54:52;101971.20;;;6.19;100.00
32873;BME280;19224;52.462;16.898;2023-02-12T02:57:50;101965.40;;;6.16;100.00
32873;BME280;19224;52.462;16.898;2023-02-12T03:00:40;101974.34;;;6.23;100.00
32873;BME280;19224;52.462;16.898;2023-02-12T03:03:14;101969.86;;;6.26;100.00
32873;BME280;19224;52.462;16.898;2023-02-12T03:05:46;101976.98;;;6.32;100.00
32873;BME280;19224;52.462;16.898;2023-02-12T03:08:41;101978.36;;;6.23;100.00
32873;BME280;19224;52.462;16.898;2023-02-12T03:11:08;101972.98;;;6.20;100.00
32873;BME280;19224;52.462;16.898;2023-02-12T03:13:40;101974.77;;;6.21;100.00
32873;BME280;19224;52.462;16.898;2023-02-12T03:16:21;101982.80;;;6.18;100.00
32873;BME280;19224;52.462;16.898;2023-02-12T03:19:02;101984.57;;;6.22;100.00
32873;BME280;19224;52.462;16.898;2023-02-12T03:21:57;101986.37;;;6.26;100.00
32873;BME280;19224;52.462;16.898;2023-02-12T03:27:32;101985.92;;;6.19;100.00
32873;BME280;19224;52.462;16.898;2023-02-12T03:29:58;101991.27;;;6.14;100.00
32873;BME280;19224;52.462;16.898;2023-02-12T03:32:57;102000.17;;;5.97;100.00
32873;BME280;19224;52.462;16.898;2023-02-12T03:35:33;102003.77;;;6.02;100.00
32873;BME280;19224;52.462;16.898;2023-02-12T03:38:48;102011.31;;;5.98;100.00
32873;BME280;19224;52.462;16.898;2023-02-12T03:41:40;102020.22;;;6.00;100.00
32873;BME280;19224;52.462;16.898;2023-02-12T03:47:36;102028.69;;;5.93;100.00
32873;BME280;19224;52.462;16.898;2023-02-12T03:53:01;102030.04;;;6.02;100.00
32873;BME280;19224;52.462;16.898;2023-02-12T03:55:33;102034.95;;;6.06;100.00
32873;BME280;19224;52.462;16.898;2023-02-12T03:58:07;102036.27;;;5.97;100.00
32873;BME280;19224;52.462;16.898;2023-02-12T04:00:39;102050.10;;;5.99;100.00
32873;BME280;19224;52.462;16.898;2023-02-12T04:03:10;102047.86;;;5.99;100.00
32873;BME280;19224;52.462;16.898;2023-02-12T04:05:41;102047.88;;;5.97;100.00
32873;BME280;19224;52.462;16.898;2023-02-12T04:08:12;102045.62;;;6.00;100.00
32873;BME280;19224;52.462;16.898;2023-02-12T04:11:13;102054.98;;;5.86;100.00
32873;BME280;19224;52.462;16.898;2023-02-12T04:17:30;102059.47;;;5.96;100.00
32873;BME280;19224;52.462;16.898;2023-02-12T04:20:25;102054.12;;;5.96;100.00
32873;BME280;19224;52.462;16.898;2023-02-12T04:23:46;102059.88;;;5.81;100.00
32873;BME280;19224;52.462;16.898;2023-02-12T04:29:25;102069.23;;;5.81;100.00
32873;BME280;19224;52.462;16.898;2023-02-12T04:32:40;102067.02;;;5.83;100.00
32873;BME280;19224;52.462;16.898;2023-02-12T04:35:43;102067.48;;;5.89;100.00
32873;BME280;19224;52.462;16.898;2023-02-12T04:38:15;102070.16;;;5.96;100.00
32873;BME280;19224;52.462;16.898;2023-02-12T04:40:43;102063.02;;;5.94;100.00
32873;BME280;19224;52.462;16.898;2023-02-12T04:43:13;102071.47;;;5.93;100.00
32873;BME280;19224;52.462;16.898;2023-02-12T04:45:44;102076.39;;;5.94;100.00
32873;BME280;19224;52.462;16.898;2023-02-12T04:48:14;102080.39;;;5.94;100.00
32873;BME280;19224;52.462;16.898;2023-02-12T04:50:44;102082.64;;;5.97;100.00
32873;BME280;19224;52.462;16.898;2023-02-12T04:53:15;102081.77;;;6.03;100.00
32873;BME280;19224;52.462;16.898;2023-02-12T04:55:45;102091.11;;;6.04;100.00
32873;BME280;19224;52.462;16.898;2023-02-12T04:58:17;102090.69;;;6.06;100.00
32873;BME280;19224;52.462;16.898;2023-02-12T05:00:48;102099.16;;;6.07;100.00
32873;BME280;19224;52.462;16.898;2023-02-12T05:03:18;102089.35;;;6.09;100.00
32873;BME280;19224;52.462;16.898;2023-02-12T05:05:48;102088.91;;;6.11;100.00
32873;BME280;19224;52.462;16.898;2023-02-12T05:08:19;102093.38;;;6.17;100.00
32873;BME280;19224;52.462;16.898;2023-02-12T05:10:49;102094.71;;;6.14;100.00
32873;BME280;19224;52.462;16.898;2023-02-12T05:13:20;102102.30;;;6.17;100.00
32873;BME280;19224;52.462;16.898;2023-02-12T05:15:51;102105.86;;;6.22;100.00
32873;BME280;19224;52.462;16.898;2023-02-12T05:18:21;102105.87;;;6.19;100.00
32873;BME280;19224;52.462;16.898;2023-02-12T05:21:03;102107.17;;;6.16;100.00
32873;BME280;19224;52.462;16.898;2023-02-12T05:23:36;102117.00;;;6.19;100.00
32873;BME280;19224;52.462;16.898;2023-02-12T05:26:16;102114.77;;;6.14;100.00
32873;BME280;19224;52.462;16.898;2023-02-12T05:28:43;102124.11;;;6.11;100.00
32873;BME280;19224;52.462;16.898;2023-02-12T05:31:16;102128.13;;;6.05;100.00
32873;BME280;19224;52.462;16.898;2023-02-12T05:33:48;102130.33;;;6.02;100.00
32873;BME280;19224;52.462;16.898;2023-02-12T05:36:22;102127.23;;;6.03;100.00
32873;BME280;19224;52.462;16.898;2023-02-12T05:38:58;102128.11;;;5.94;100.00
32873;BME280;19224;52.462;16.898;2023-02-12T05:41:28;102137.00;;;5.92;100.00
32873;BME280;19224;52.462;16.898;2023-02-12T05:44:02;102141.45;;;5.93;100.00
32873;BME280;19224;52.462;16.898;2023-02-12T05:46:33;102149.48;;;5.96;100.00
32873;BME280;19224;52.462;16.898;2023-02-12T05:49:04;102154.42;;;6.01;100.00
32873;BME280;19224;52.462;16.898;2023-02-12T05:51:35;102148.14;;;5.93;100.00
32873;BME280;19224;52.462;16.898;2023-02-12T05:54:08;102164.66;;;5.98;100.00
32873;BME280;19224;52.462;16.898;2023-02-12T05:56:44;102166.86;;;5.96;100.00
32873;BME280;19224;52.462;16.898;2023-02-12T05:59:21;102174.86;;;5.91;100.00
32873;BME280;19224;52.462;16.898;2023-02-12T06:01:53;102179.31;;;5.89;100.00
32873;BME280;19224;52.462;16.898;2023-02-12T06:04:27;102183.34;;;5.91;100.00
32873;BME280;19224;52.462;16.898;2023-02-12T06:06:59;102189.16;;;5.96;100.00
32873;BME280;19224;52.462;16.898;2023-02-12T06:09:30;102195.34;;;5.88;100.00
32873;BME280;19224;52.462;16.898;2023-02-12T06:12:01;102188.25;;;5.93;100.00
32873;BME280;19224;52.462;16.898;2023-02-12T06:14:31;102189.59;;;5.99;100.00
32873;BME280;19224;52.462;16.898;2023-02-12T06:17:02;102187.83;;;5.99;100.00
32873;BME280;19224;52.462;16.898;2023-02-12T06:19:33;102197.21;;;6.01;100.00
32873;BME280;19224;52.462;16.898;2023-02-12T06:22:03;102214.59;;;6.01;100.00
32873;BME280;19224;52.462;16.898;2023-02-12T06:24:34;102212.81;;;6.03;100.00
32873;BME280;19224;52.462;16.898;2023-02-12T06:27:05;102212.77;;;6.00;100.00
32873;BME280;19224;52.462;16.898;2023-02-12T06:29:36;102218.56;;;5.95;100.00
32873;BME280;19224;52.462;16.898;2023-02-12T06:32:06;102227.47;;;5.91;100.00
32873;BME280;19224;52.462;16.898;2023-02-12T06:34:37;102223.89;;;5.90;100.00
32873;BME280;19224;52.462;16.898;2023-02-12T06:37:07;102226.99;;;5.85;100.00
32873;BME280;19224;52.462;16.898;2023-02-12T06:39:38;102232.77;;;5.82;100.00
32873;BME280;19224;52.462;16.898;2023-02-12T06:42:08;102236.78;;;5.85;100.00
32873;BME280;19224;52.462;16.898;2023-02-12T06:44:39;102243.91;;;5.83;100.00
32873;BME280;19224;52.462;16.898;2023-02-12T06:47:10;102246.58;;;5.80;100.00
32873;BME280;19224;52.462;16.898;2023-02-12T06:49:40;102250.13;;;5.79;100.00
32873;BME280;19224;52.462;16.898;2023-02-12T06:52:14;102254.97;;;5.73;100.00
32873;BME280;19224;52.462;16.898;2023-02-12T06:54:44;102257.19;;;5.72;100.00
32873;BME280;19224;52.462;16.898;2023-02-12T06:57:15;102258.97;;;5.75;100.00
32873;BME280;19224;52.462;16.898;2023-02-12T06:59:45;102260.77;;;5.77;100.00
32873;BME280;19224;52.462;16.898;2023-02-12T07:02:15;102259.48;;;5.79;100.00
32873;BME280;19224;52.462;16.898;2023-02-12T07:04:46;102254.59;;;5.80;100.00
32873;BME280;19224;52.462;16.898;2023-02-12T07:07:16;102260.81;;;5.80;100.00
32873;BME280;19224;52.462;16.898;2023-02-12T07:09:46;102256.38;;;5.81;100.00
32873;BME280;19224;52.462;16.898;2023-02-12T07:12:17;102264.41;;;5.84;100.00
32873;BME280;19224;52.462;16.898;2023-02-12T07:14:47;102261.73;;;5.84;100.00
32873;BME280;19224;52.462;16.898;2023-02-12T07:17:18;102265.33;;;5.87;100.00
32873;BME280;19224;52.462;16.898;2023-02-12T07:19:48;102258.18;;;5.88;100.00
32873;BME280;19224;52.462;16.898;2023-02-12T07:22:19;102265.77;;;5.85;100.00
32873;BME280;19224;52.462;16.898;2023-02-12T07:24:50;102269.36;;;5.89;100.00
32873;BME280;19224;52.462;16.898;2023-02-12T07:27:20;102271.14;;;5.90;100.00
32873;BME280;19224;52.462;16.898;2023-02-12T07:29:51;102269.79;;;5.91;100.00
32873;BME280;19224;52.462;16.898;2023-02-12T07:32:21;102273.80;;;5.91;100.00
32873;BME280;19224;52.462;16.898;2023-02-12T07:34:51;102271.15;;;5.93;100.00
32873;BME280;19224;52.462;16.898;2023-02-12T07:37:22;102276.95;;;5.94;100.00
32873;BME280;19224;52.462;16.898;2023-02-12T07:39:52;102269.38;;;5.98;100.00
32873;BME280;19224;52.462;16.898;2023-02-12T07:42:22;102286.79;;;6.02;100.00
32873;BME280;19224;52.462;16.898;2023-02-12T07:44:54;102293.97;;;6.06;100.00
32873;BME280;19224;52.462;16.898;2023-02-12T07:47:25;102297.98;;;6.06;100.00
32873;BME280;19224;52.462;16.898;2023-02-12T07:49:55;102297.94;;;6.03;100.00
32873;BME280;19224;52.462;16.898;2023-02-12T07:52:25;102301.09;;;6.09;100.00
32873;BME280;19224;52.462;16.898;2023-02-12T07:54:56;102299.30;;;6.08;100.00
32873;BME280;19224;52.462;16.898;2023-02-12T07:57:26;102302.45;;;6.10;100.00
32873;BME280;19224;52.462;16.898;2023-02-12T07:59:56;102303.31;;;6.08;100.00
32873;BME280;19224;52.462;16.898;2023-02-12T08:02:27;102306.91;;;6.11;100.00
32873;BME280;19224;52.462;16.898;2023-02-12T08:04:58;102305.57;;;6.11;100.00
32873;BME280;19224;52.462;16.898;2023-02-12T08:07:29;102302.84;;;6.05;100.00
32873;BME280;19224;52.462;16.898;2023-02-12T08:10:00;102302.42;;;6.09;100.00
32873;BME280;19224;52.462;16.898;2023-02-12T08:12:30;102303.33;;;6.06;100.00
32873;BME280;19224;52.462;16.898;2023-02-12T08:15:00;102302.42;;;6.09;100.00
32873;BME280;19224;52.462;16.898;2023-02-12T08:17:31;102306.48;;;6.12;100.00
32873;BME280;19224;52.462;16.898;2023-02-12T08:20:02;102312.73;;;6.17;100.00
32873;BME280;19224;52.462;16.898;2023-02-12T08:22:32;102311.84;;;6.18;100.00
32873;BME280;19224;52.462;16.898;2023-02-12T08:25:02;102318.08;;;6.14;100.00
32873;BME280;19224;52.462;16.898;2023-02-12T08:27:33;102314.07;;;6.17;100.00
32873;BME280;19224;52.462;16.898;2023-02-12T08:30:03;102315.88;;;6.19;100.00
32873;BME280;19224;52.462;16.898;2023-02-12T08:32:34;102311.41;;;6.20;100.00
32873;BME280;19224;52.462;16.898;2023-02-12T08:35:04;102312.29;;;6.19;100.00
32873;BME280;19224;52.462;16.898;2023-02-12T08:37:35;102318.09;;;6.20;100.00
32873;BME280;19224;52.462;16.898;2023-02-12T08:40:06;102309.17;;;6.18;100.00
32873;BME280;19224;52.462;16.898;2023-02-12T08:42:37;102310.55;;;6.24;100.00
32873;BME280;19224;52.462;16.898;2023-02-12T08:45:08;102310.55;;;6.27;100.00
32873;BME280;19224;52.462;16.898;2023-02-12T08:47:39;102315.05;;;6.32;100.00
32873;BME280;19224;52.462;16.898;2023-02-12T08:50:10;102318.19;;;6.35;100.00
32873;BME280;19224;52.462;16.898;2023-02-12T08:52:40;102321.27;;;6.33;100.00
32873;BME280;19224;52.462;16.898;2023-02-12T08:55:10;102317.25;;;6.33;100.00
32873;BME280;19224;52.462;16.898;2023-02-12T08:57:42;102322.64;;;6.36;100.00
32873;BME280;19224;52.462;16.898;2023-02-12T09:00:13;102320.86;;;6.35;100.00
32873;BME280;19224;52.462;16.898;2023-02-12T09:02:43;102318.61;;;6.31;100.00
32873;BME280;19224;52.462;16.898;2023-02-12T09:05:14;102322.20;;;6.35;100.00
32873;BME280;19224;52.462;16.898;2023-02-12T09:07:44;102316.39;;;6.38;100.00
32873;BME280;19224;52.462;16.898;2023-02-12T09:10:15;102321.32;;;6.42;100.00
32873;BME280;19224;52.462;16.898;2023-02-12T09:12:45;102330.23;;;6.38;100.00
32873;BME280;19224;52.462;16.898;2023-02-12T09:15:16;102328.87;;;6.36;100.00
32873;BME280;19224;52.462;16.898;2023-02-12T09:17:47;102331.59;;;6.39;100.00
32873;BME280;19224;52.462;16.898;2023-02-12T09:20:17;102345.82;;;6.35;100.00
32873;BME280;19224;52.462;16.898;2023-02-12T09:22:48;102345.84;;;6.37;100.00
32873;BME280;19224;52.462;16.898;2023-02-12T09:25:18;102344.92;;;6.33;100.00
32873;BME280;19224;52.462;16.898;2023-02-12T09:27:48;102347.63;;;6.38;100.00
32873;BME280;19224;52.462;16.898;2023-02-12T09:30:19;102354.77;;;6.42;100.00
32873;BME280;19224;52.462;16.898;2023-02-12T09:32:49;102357.91;;;6.44;100.00
32873;BME280;19224;52.462;16.898;2023-02-12T09:35:19;102366.84;;;6.46;100.00
32873;BME280;19224;52.462;16.898;2023-02-12T09:37:56;102369.09;;;6.47;100.00
32873;BME280;19224;52.462;16.898;2023-02-12T09:40:42;102365.05;;;6.42;100.00
32873;BME280;19224;52.462;16.898;2023-02-12T09:43:29;102367.75;;;6.47;100.00
32873;BME280;19224;52.462;16.898;2023-02-12T09:51:52;102352.05;;;6.33;100.00
32873;BME280;19224;52.462;16.898;2023-02-12T09:54:33;102359.17;;;6.31;100.00
32873;BME280;19224;52.462;16.898;2023-02-12T09:57:06;102354.73;;;6.34;100.00
32873;BME280;19224;52.462;16.898;2023-02-12T09:59:47;102354.77;;;6.42;100.00
32873;BME280;19224;52.462;16.898;2023-02-12T10:02:15;102353.48;;;6.48;100.00
32873;BME280;19224;52.462;16.898;2023-02-12T10:04:47;102354.84;;;6.55;100.00
32873;BME280;19224;52.462;16.898;2023-02-12T10:12:48;102345.05;;;6.62;100.00
32873;BME280;19224;52.462;16.898;2023-02-12T10:18:32;102346.41;;;6.66;100.00
32873;BME280;19224;52.462;16.898;2023-02-12T10:21:37;102344.16;;;6.63;100.00
32873;BME280;19224;52.462;16.898;2023-02-12T10:24:26;102344.61;;;6.64;100.00
32873;BME280;19224;52.462;16.898;2023-02-12T10:26:58;102338.80;;;6.60;100.00
32873;BME280;19224;52.462;16.898;2023-02-12T10:29:32;102337.02;;;6.62;100.00
32873;BME280;19224;52.462;16.898;2023-02-12T10:32:11;102334.80;;;6.66;100.00
32873;BME280;19224;52.462;16.898;2023-02-12T10:34:39;102345.98;;;6.70;100.00
32873;BME280;19224;52.462;16.898;2023-02-12T10:40:00;102351.81;;;6.81;100.00
32873;BME280;19224;52.462;16.898;2023-02-12T10:42:41;102342.91;;;6.94;100.00
32873;BME280;19224;52.462;16.898;2023-02-12T10:45:28;102337.16;;;7.03;100.00
32873;BME280;19224;52.462;16.898;2023-02-12T10:47:50;102338.92;;;7.00;100.00
32873;BME280;19224;52.462;16.898;2023-02-12T10:53:22;102339.84;;;7.03;100.00
32873;BME280;19224;52.462;16.898;2023-02-12T10:56:23;102338.00;;;6.92;100.00
32873;BME280;19224;52.462;16.898;2023-02-12T10:58:59;102342.45;;;6.86;100.00
32873;BME280;19224;52.462;16.898;2023-02-12T11:01:36;102341.55;;;6.79;100.00
32873;BME280;19224;52.462;16.898;2023-02-12T11:04:27;102338.42;;;6.81;100.00
32873;BME280;19224;52.462;16.898;2023-02-12T11:07:05;102353.17;;;6.80;100.00
32873;BME280;19224;52.462;16.898;2023-02-12T11:09:43;102350.90;;;6.72;100.00
32873;BME280;19224;52.462;16.898;2023-02-12T11:17:59;102349.96;;;6.61;100.00
32873;BME280;19224;52.462;16.898;2023-02-12T11:21:06;102350.33;;;6.45;100.00
32873;BME280;19224;52.462;16.898;2023-02-12T11:23:40;102340.55;;;6.49;100.00
32873;BME280;19224;52.462;16.898;2023-02-12T11:26:25;102348.59;;;6.53;100.00
32873;BME280;19224;52.462;16.898;2023-02-12T11:29:08;102347.70;;;6.54;100.00
32873;BME280;19224;52.462;16.898;2023-02-12T11:31:35;102341.44;;;6.54;100.00
32873;BME280;19224;52.462;16.898;2023-02-12T11:34:18;102336.97;;;6.47;100.00
32873;BME280;19224;52.462;16.898;2023-02-12T11:36:53;102335.19;;;6.49;100.00
32873;BME280;19224;52.462;16.898;2023-02-12T11:39:37;102335.19;;;6.49;100.00
32873;BME280;19224;52.462;16.898;2023-02-12T11:42:17;102338.73;;;6.46;100.00
32873;BME280;19224;52.462;16.898;2023-02-12T11:44:52;102343.64;;;6.45;100.00
32873;BME280;19224;52.462;16.898;2023-02-12T11:47:27;102341.86;;;6.44;100.00
32873;BME280;19224;52.462;16.898;2023-02-12T11:50:14;102335.19;;;6.46;100.00
32873;BME280;19224;52.462;16.898;2023-02-12T11:52:41;102332.06;;;6.48;100.00
32873;BME280;19224;52.462;16.898;2023-02-12T11:55:28;102331.18;;;6.55;100.00
32873;BME280;19224;52.462;16.898;2023-02-12T11:58:20;102332.92;;;6.44;100.00
32873;BME280;19224;52.462;16.898;2023-02-12T12:04:04;102342.77;;;6.45;100.00
32873;BME280;19224;52.462;16.898;2023-02-12T12:06:58;102324.38;;;6.28;100.00
32873;BME280;19224;52.462;16.898;2023-02-12T12:09:47;102314.60;;;6.37;100.00
32873;BME280;19224;52.462;16.898;2023-02-12T12:15:31;102320.94;;;6.57;100.00
32873;BME280;19224;52.462;16.898;2023-02-12T12:18:34;102315.64;;;6.74;100.00
32873;BME280;19224;52.462;16.898;2023-02-12T12:22:09;102318.80;;;6.81;100.00
32873;BME280;19224;52.462;16.898;2023-02-12T12:24:52;102316.12;;;6.84;100.00
32873;BME280;19224;52.462;16.898;2023-02-12T12:27:36;102310.36;;;6.99;100.00
32873;BME280;19224;52.462;16.898;2023-02-12T12:30:52;102300.53;;;7.08;100.00
32873;BME280;19224;52.462;16.898;2023-02-12T12:33:32;102296.08;;;7.12;100.00
32873;BME280;19224;52.462;16.898;2023-02-12T12:45:23;102296.98;;;7.08;100.00
32873;BME280;19224;52.462;16.898;2023-02-12T12:51:13;102294.31;;;7.24;100.00
32873;BME280;19224;52.462;16.898;2023-02-12T12:57:09;102292.95;;;7.30;100.00
32873;BME280;19224;52.462;16.898;2023-02-12T13:09:26;102281.80;;;7.29;100.00
32873;BME280;19224;52.462;16.898;2023-02-12T13:12:21;102280.03;;;7.22;100.00
32873;BME280;19224;52.462;16.898;2023-02-12T13:15:08;102280.46;;;7.26;100.00
32873;BME280;19224;52.462;16.898;2023-02-12T13:17:54;102271.97;;;7.24;100.00
32873;BME280;19224;52.462;16.898;2023-02-12T13:26:21;102257.67;;;7.25;100.00
32873;BME280;19224;52.462;16.898;2023-02-12T13:28:58;102260.81;;;7.20;100.00
32873;BME280;19224;52.462;16.898;2023-02-12T13:31:29;102258.59;;;7.22;100.00
32873;BME280;19224;52.462;16.898;2023-02-12T13:34:06;102249.63;;;7.25;100.00
32873;BME280;19224;52.462;16.898;2023-02-12T13:36:38;102260.34;;;7.20;100.00
32873;BME280;19224;52.462;16.898;2023-02-12T13:39:24;102255.88;;;7.15;100.00
32873;BME280;19224;52.462;16.898;2023-02-12T13:44:57;102277.80;;;7.23;100.00
32873;BME280;19224;52.462;16.898;2023-02-12T13:47:54;102265.27;;;7.16;100.00
32873;BME280;19224;52.462;16.898;2023-02-12T13:50:49;102264.36;;;7.20;100.00
32873;BME280;19224;52.462;16.898;2023-02-12T13:53:33;102263.48;;;7.15;100.00
32873;BME280;19224;52.462;16.898;2023-02-12T13:58:51;102256.79;;;7.15;100.00
32873;BME280;19224;52.462;16.898;2023-02-12T14:04:59;102267.95;;;7.16;100.00
32873;BME280;19224;52.462;16.898;2023-02-12T14:07:59;102264.81;;;7.14;100.00
32873;BME280;19224;52.462;16.898;2023-02-12T14:10:34;102263.02;;;7.08;100.00
32873;BME280;19224;52.462;16.898;2023-02-12T14:13:25;102267.95;;;7.09;100.00
32873;BME280;19224;52.462;16.898;2023-02-12T14:15:57;102264.38;;;7.14;100.00
32873;BME280;19224;52.462;16.898;2023-02-12T14:18:33;102267.95;;;7.16;100.00
32873;BME280;19224;52.462;16.898;2023-02-12T14:26:51;102274.63;;;7.10;100.00
32873;BME280;19224;52.462;16.898;2023-02-12T14:29:24;102274.21;;;7.12;100.00
32873;BME280;19224;52.462;16.898;2023-02-12T14:31:54;102283.14;;;7.11;100.00
32873;BME280;19224;52.462;16.898;2023-02-12T14:34:37;102278.65;;;7.10;100.00
32873;BME280;19224;52.462;16.898;2023-02-12T14:37:16;102274.64;;;7.07;100.00
32873;BME280;19224;52.462;16.898;2023-02-12T14:39:50;102280.45;;;7.03;100.00
32873;BME280;19224;52.462;16.898;2023-02-12T14:45:25;102278.67;;;7.06;100.00
32873;BME280;19224;52.462;16.898;2023-02-12T14:50:28;102285.31;;;6.87;100.00
32873;BME280;19224;52.462;16.898;2023-02-12T14:53:12;102281.75;;;6.82;100.00
32873;BME280;19224;52.462;16.898;2023-02-12T14:55:39;102284.01;;;6.90;100.00
32873;BME280;19224;52.462;16.898;2023-02-12T14:58:21;102290.70;;;6.90;100.00
32873;BME280;19224;52.462;16.898;2023-02-12T15:00:55;102293.80;;;6.85;100.00
32873;BME280;19224;52.462;16.898;2023-02-12T15:03:48;102300.52;;;6.94;100.00
32873;BME280;19224;52.462;16.898;2023-02-12T15:06:36;102294.25;;;6.86;100.00
32873;BME280;19224;52.462;16.898;2023-02-12T15:09:18;102294.69;;;6.84;100.00
32873;BME280;19224;52.462;16.898;2023-02-12T15:11:53;102293.80;;;6.88;100.00
32873;BME280;19224;52.462;16.898;2023-02-12T15:14:31;102286.66;;;6.84;100.00
32873;BME280;19224;52.462;16.898;2023-02-12T15:17:18;102288.89;;;6.86;100.00
32873;BME280;19224;52.462;16.898;2023-02-12T15:20:02;102283.53;;;6.83;100.00